createdAt,value
2016-05-20T00:00:04.188Z,87.46
2016-05-20T00:01:04.176Z,87.4
2016-05-20T00:02:04.163Z,87.74
2016-05-20T00:03:03.993Z,87.4
2016-05-20T00:04:04.121Z,87.5
2016-05-20T00:05:04.123Z,87.74
2016-05-20T00:06:04.111Z,88.03
2016-05-20T00:07:04.098Z,87.84
2016-05-20T00:08:04.085Z,87.36
2016-05-20T00:09:03.916Z,86.98
2016-05-20T00:10:04.059Z,87.84
2016-05-20T00:11:04.047Z,87.36
2016-05-20T00:12:04.033Z,86.98
2016-05-20T00:13:04.005Z,87.93
2016-05-20T00:14:04.007Z,87.84
2016-05-20T00:15:03.995Z,88.03
2016-05-20T00:16:03.810Z,88.6
2016-05-20T00:17:03.953Z,88.89
2016-05-20T00:18:03.956Z,88.6
2016-05-20T00:19:03.927Z,87.84
2016-05-20T00:20:03.914Z,87.93
2016-05-20T00:21:03.902Z,87.74
2016-05-20T00:22:03.888Z,87.74
2016-05-20T00:23:03.891Z,87.55
2016-05-20T00:24:03.878Z,87.27
2016-05-20T00:25:03.849Z,87.65
2016-05-20T00:26:03.837Z,87.84
2016-05-20T00:27:03.823Z,87.74
2016-05-20T00:28:03.826Z,87.74
2016-05-20T00:29:03.798Z,88.03
2016-05-20T00:30:03.801Z,87.55
2016-05-20T00:31:03.772Z,88.98
2016-05-20T00:32:03.759Z,89.17
2016-05-20T00:33:03.746Z,89.07
2016-05-20T00:34:03.734Z,89.17
2016-05-20T00:35:03.721Z,89.07
2016-05-20T00:36:03.707Z,89.65
2016-05-20T00:37:03.695Z,89.55
2016-05-20T00:38:03.681Z,90.03
2016-05-20T00:39:03.590Z,90.12
2016-05-20T00:40:03.656Z,90.41
2016-05-20T00:41:03.642Z,90.22
2016-05-20T00:42:03.645Z,90.12
2016-05-20T00:43:03.616Z,89.07
2016-05-20T00:44:03.603Z,90.12
2016-05-20T00:45:03.592Z,90.31
2016-05-20T00:46:03.594Z,90.03
2016-05-20T00:47:03.564Z,90.17
2016-05-20T00:48:03.552Z,90.56
2016-05-20T00:49:03.539Z,90.56
2016-05-20T00:50:03.527Z,90.5
2016-05-20T00:51:03.513Z,89.94
2016-05-20T00:52:03.500Z,90.36
2016-05-20T00:53:03.488Z,90.27
2016-05-20T00:54:03.677Z,90.56
2016-05-20T00:55:03.461Z,89.89
2016-05-20T00:56:03.433Z,89.98
2016-05-20T00:57:03.279Z,89.98
2016-05-20T00:58:03.407Z,89.89
2016-05-20T00:59:03.394Z,90.27
2016-05-20T01:00:03.397Z,90.46
2016-05-20T01:01:03.212Z,90.27
2016-05-20T01:02:03.199Z,90.75
2016-05-20T01:03:03.343Z,90.75
2016-05-20T01:04:03.330Z,90.65
2016-05-20T01:05:03.332Z,90.84
2016-05-20T01:06:03.148Z,90.84
2016-05-20T01:07:03.353Z,90.75
2016-05-20T01:08:03.121Z,91.03
2016-05-20T01:09:03.109Z,91.7
2016-05-20T01:10:03.251Z,91.13
2016-05-20T01:11:03.239Z,90.75
2016-05-20T01:12:03.210Z,90.94
2016-05-20T01:13:03.197Z,91.31
2016-05-20T01:14:03.029Z,91.79
2016-05-20T01:15:03.171Z,92.08
2016-05-20T01:16:03.174Z,92.08
2016-05-20T01:17:03.145Z,91.99
2016-05-20T01:18:03.148Z,91.79
2016-05-20T01:19:03.120Z,92.18
2016-05-20T01:20:03.107Z,91.41
2016-05-20T01:21:02.938Z,91.51
2016-05-20T01:22:03.080Z,91.41
2016-05-20T01:23:02.911Z,91.41
2016-05-20T01:24:02.899Z,91.6
2016-05-20T01:25:02.885Z,91.22
2016-05-20T01:26:03.029Z,91.31
2016-05-20T01:27:02.860Z,90.75
2016-05-20T01:28:03.004Z,91.6
2016-05-20T01:29:02.991Z,91.51
2016-05-20T01:30:02.977Z,91.89
2016-05-20T01:31:02.965Z,92.18
2016-05-20T01:32:02.952Z,93.03
2016-05-20T01:33:02.938Z,92.65
2016-05-20T01:34:02.926Z,92.74
2016-05-20T01:35:02.913Z,92.65
2016-05-20T01:36:02.900Z,93.03
2016-05-20T01:37:02.731Z,93.13
2016-05-20T01:38:02.859Z,93.41
2016-05-20T01:39:02.751Z,93.22
2016-05-20T01:40:02.832Z,93.32
2016-05-20T01:41:02.819Z,93.41
2016-05-20T01:42:02.651Z,93.22
2016-05-20T01:43:02.795Z,93.79
2016-05-20T01:44:02.780Z,93.7
2016-05-20T01:45:02.768Z,94.27
2016-05-20T01:46:02.755Z,94.27
2016-05-20T01:47:02.742Z,94.17
2016-05-20T01:48:02.729Z,94.27
2016-05-20T01:49:02.716Z,94.27
2016-05-20T01:50:02.547Z,94.17
2016-05-20T01:51:02.690Z,93.98
2016-05-20T01:52:02.677Z,94.56
2016-05-20T01:53:02.664Z,94.37
2016-05-20T01:54:02.651Z,94.65
2016-05-20T01:55:02.638Z,94.37
2016-05-20T01:56:02.625Z,94.46
2016-05-20T01:57:02.613Z,94.37
2016-05-20T01:58:02.599Z,94.27
2016-05-20T01:59:02.571Z,94.27
2016-05-20T02:00:02.574Z,94.37
2016-05-20T02:01:02.546Z,94.65
2016-05-20T02:02:02.532Z,94.46
2016-05-20T02:03:02.519Z,94.46
2016-05-20T02:04:02.506Z,94.46
2016-05-20T02:05:02.493Z,94.56
2016-05-20T02:06:02.481Z,94.65
2016-05-20T02:07:02.467Z,94.65
2016-05-20T02:08:02.298Z,95.03
2016-05-20T02:09:02.629Z,95.12
2016-05-20T02:10:02.429Z,94.74
2016-05-20T02:11:02.416Z,94.17
2016-05-20T02:12:02.404Z,94.74
2016-05-20T02:13:02.390Z,94.74
2016-05-20T02:14:02.378Z,94.93
2016-05-20T02:15:02.364Z,95.03
2016-05-20T02:16:02.350Z,95.03
2016-05-20T02:17:02.354Z,95.12
2016-05-20T02:18:02.325Z,95.51
2016-05-20T02:19:02.312Z,96.08
2016-05-20T02:20:02.300Z,95.7
2016-05-20T02:21:02.286Z,95.89
2016-05-20T02:22:02.274Z,96.08
2016-05-20T02:23:02.260Z,95.6
2016-05-20T02:24:02.436Z,95.98
2016-05-20T02:25:02.250Z,95.98
2016-05-20T02:26:02.206Z,96.46
2016-05-20T02:27:02.209Z,96.22
2016-05-20T02:28:02.196Z,96.84
2016-05-20T02:29:02.183Z,96.55
2016-05-20T02:30:02.170Z,96.41
2016-05-20T02:31:02.141Z,96.41
2016-05-20T02:32:02.144Z,96.27
2016-05-20T02:33:02.131Z,95.98
2016-05-20T02:34:02.102Z,96.65
2016-05-20T02:35:02.104Z,96.46
2016-05-20T02:36:02.076Z,96.6
2016-05-20T02:37:02.189Z,96.79
2016-05-20T02:38:01.910Z,96.6
2016-05-20T02:39:02.054Z,96.6
2016-05-20T02:40:02.119Z,95.94
2016-05-20T02:41:02.028Z,95.84
2016-05-20T02:42:02.031Z,96.12
2016-05-20T02:43:02.081Z,95.94
2016-05-20T02:44:01.895Z,95.94
2016-05-20T02:45:02.023Z,95.94
2016-05-20T02:46:01.947Z,95.94
2016-05-20T02:47:01.934Z,96.31
2016-05-20T02:48:01.922Z,96.41
2016-05-20T02:49:01.909Z,96.79
2016-05-20T02:50:01.895Z,96.7
2016-05-20T02:51:01.867Z,96.6
2016-05-20T02:52:01.855Z,96.98
2016-05-20T02:53:01.842Z,96.79
2016-05-20T02:54:01.828Z,96.89
2016-05-20T02:55:01.816Z,96.89
2016-05-20T02:56:01.647Z,96.89
2016-05-20T02:57:01.805Z,97.46
2016-05-20T02:58:01.777Z,96.98
2016-05-20T02:59:01.763Z,96.7
2016-05-20T03:00:01.751Z,96.89
2016-05-20T03:01:01.738Z,96.98
2016-05-20T03:02:01.725Z,96.7
2016-05-20T03:03:01.713Z,96.98
2016-05-20T03:04:01.698Z,97.36
2016-05-20T03:05:01.686Z,97.46
2016-05-20T03:06:01.673Z,97.36
2016-05-20T03:07:01.504Z,97.27
2016-05-20T03:08:01.648Z,96.79
2016-05-20T03:09:01.634Z,96.7
2016-05-20T03:10:01.621Z,96.7
2016-05-20T03:11:01.609Z,97.36
2016-05-20T03:12:01.595Z,97.27
2016-05-20T03:13:01.567Z,97.27
2016-05-20T03:14:01.553Z,97.36
2016-05-20T03:15:01.384Z,97.65
2016-05-20T03:16:01.529Z,97.36
2016-05-20T03:17:01.515Z,97.36
2016-05-20T03:18:01.502Z,97.55
2016-05-20T03:19:01.490Z,97.65
2016-05-20T03:20:01.476Z,97.55
2016-05-20T03:21:01.463Z,97.46
2016-05-20T03:22:01.450Z,97.36
2016-05-20T03:23:01.438Z,97.36
2016-05-20T03:24:01.424Z,97.46
2016-05-20T03:25:01.411Z,97.36
2016-05-20T03:26:01.400Z,97.27
2016-05-20T03:27:01.369Z,97.93
2016-05-20T03:28:01.357Z,97.55
2016-05-20T03:29:01.360Z,97.55
2016-05-20T03:30:01.332Z,97.55
2016-05-20T03:31:01.319Z,97.74
2016-05-20T03:32:01.149Z,97.65
2016-05-20T03:33:01.293Z,97.46
2016-05-20T03:34:01.123Z,97.74
2016-05-20T03:35:01.266Z,97.93
2016-05-20T03:36:01.254Z,97.46
2016-05-20T03:37:01.240Z,97.74
2016-05-20T03:38:01.228Z,97.6
2016-05-20T03:39:01.215Z,98.13
2016-05-20T03:40:01.202Z,97.98
2016-05-20T03:41:01.189Z,98.22
2016-05-20T03:42:01.176Z,98.27
2016-05-20T03:43:01.163Z,98.36
2016-05-20T03:44:00.995Z,98.36
2016-05-20T03:45:01.122Z,98.6
2016-05-20T03:46:01.109Z,98.22
2016-05-20T03:47:01.095Z,98.08
2016-05-20T03:48:01.083Z,98.46
2016-05-20T03:49:01.069Z,98.36
2016-05-20T03:50:01.056Z,98.55
2016-05-20T03:51:01.059Z,98.13
2016-05-20T03:52:01.031Z,97.79
2016-05-20T03:53:01.019Z,98.27
2016-05-20T03:54:01.006Z,98.22
2016-05-20T03:55:00.820Z,98.27
2016-05-20T03:56:00.980Z,97.79
2016-05-20T03:57:00.967Z,98.17
2016-05-20T03:58:00.938Z,98.13
2016-05-20T03:59:00.925Z,98.32
2016-05-20T04:00:00.912Z,98.32
2016-05-20T04:01:00.899Z,98.5
2016-05-20T04:02:00.886Z,98.03
2016-05-20T04:03:00.874Z,98.22
2016-05-20T04:04:00.860Z,97.84
2016-05-20T04:05:00.847Z,97.84
2016-05-20T04:06:00.835Z,97.84
2016-05-20T04:07:00.822Z,97.46
2016-05-20T04:08:00.809Z,97.65
2016-05-20T04:09:00.795Z,97.27
2016-05-20T04:10:00.783Z,97.27
2016-05-20T04:11:00.770Z,97.55
2016-05-20T04:12:00.757Z,97.46
2016-05-20T04:13:00.743Z,97.36
2016-05-20T04:14:00.731Z,97.65
2016-05-20T04:15:00.718Z,97.27
2016-05-20T04:16:00.549Z,97.08
2016-05-20T04:17:00.677Z,97.27
2016-05-20T04:18:00.664Z,97.36
2016-05-20T04:19:00.667Z,96.98
2016-05-20T04:20:00.654Z,96.7
2016-05-20T04:21:00.625Z,97.46
2016-05-20T04:22:00.612Z,97.46
2016-05-20T04:23:00.599Z,97.03
2016-05-20T04:24:00.586Z,97.03
2016-05-20T04:25:00.433Z,96.75
2016-05-20T04:26:00.560Z,95.98
2016-05-20T04:27:00.547Z,95.98
2016-05-20T04:28:00.533Z,95.98
2016-05-20T04:29:00.521Z,95.41
2016-05-20T04:30:00.509Z,95.03
2016-05-20T04:31:00.496Z,94.65
2016-05-20T04:32:00.483Z,94.79
2016-05-20T04:33:00.469Z,94.6
2016-05-20T04:34:00.457Z,93.74
2016-05-20T04:35:00.444Z,93.46
2016-05-20T04:36:00.274Z,93.08
2016-05-20T04:37:00.418Z,92.74
2016-05-20T04:38:00.404Z,92.69
2016-05-20T04:39:00.393Z,92.55
2016-05-20T04:40:00.224Z,92.55
2016-05-20T04:41:00.366Z,92.17
2016-05-20T04:42:00.354Z,91.79
2016-05-20T04:43:00.356Z,91.74
2016-05-20T04:44:00.327Z,89.54
2016-05-20T04:45:00.315Z,88.35
2016-05-20T04:46:00.317Z,87.68
2016-05-20T04:47:00.148Z,87.49
2016-05-20T04:48:00.291Z,87.78
2016-05-20T04:49:00.278Z,87.78
2016-05-20T04:50:00.265Z,87.02
2016-05-20T04:51:00.252Z,86.54
2016-05-20T04:52:00.240Z,85.91
2016-05-20T04:53:00.226Z,86.01
2016-05-20T04:54:00.214Z,85.63
2016-05-20T04:55:00.561Z,85.48
2016-05-20T04:56:00.203Z,84.81
2016-05-20T04:57:00.190Z,84.43
2016-05-20T04:58:00.177Z,84.48
2016-05-20T04:59:00.164Z,84.72
2016-05-20T05:00:00.167Z,85.29
2016-05-20T05:01:00.138Z,83.42
2016-05-20T05:02:00.142Z,82.9
2016-05-20T05:03:00.127Z,82.56
2016-05-20T05:04:00.115Z,82.84
2016-05-20T05:05:00.103Z,82.52
2016-05-20T05:06:00.105Z,82.04
2016-05-20T05:07:00.093Z,82.14
2016-05-20T05:07:59.923Z,83.38
2016-05-20T05:09:00.082Z,84.14
2016-05-20T05:10:00.507Z,83.95
2016-05-20T05:11:00.040Z,84.05
2016-05-20T05:12:00.043Z,82.9
2016-05-20T05:13:00.029Z,83.67
2016-05-20T05:14:00.017Z,83.67
2016-05-20T05:15:00.004Z,84.91
2016-05-20T05:15:59.992Z,84.81
2016-05-20T05:16:59.979Z,84.81
2016-05-20T05:17:59.981Z,84.52
2016-05-20T05:18:59.968Z,83.67
2016-05-20T05:19:59.956Z,83.76
2016-05-20T05:20:59.943Z,83.95
2016-05-20T05:21:59.929Z,84.52
2016-05-20T05:22:59.760Z,83.86
2016-05-20T05:23:59.920Z,83.67
2016-05-20T05:24:59.906Z,84.14
2016-05-20T05:25:59.893Z,84.52
2016-05-20T05:26:59.896Z,84.52
2016-05-20T05:27:59.867Z,84.23
2016-05-20T05:28:59.698Z,84.43
2016-05-20T05:29:59.842Z,83.09
2016-05-20T05:30:59.828Z,83.86
2016-05-20T05:31:59.816Z,84.43
2016-05-20T05:32:59.803Z,84.62
2016-05-20T05:33:59.806Z,85.19
2016-05-20T05:34:59.793Z,85.58
2016-05-20T05:35:59.624Z,85.67
2016-05-20T05:36:59.766Z,85.58
2016-05-20T05:37:59.754Z,84.72
2016-05-20T05:38:59.741Z,85.29
2016-05-20T05:39:59.743Z,84.52
2016-05-20T05:40:59.731Z,83.18
2016-05-20T05:41:59.718Z,82.61
2016-05-20T05:42:59.704Z,84.14
2016-05-20T05:43:59.693Z,84.38
2016-05-20T05:44:59.678Z,82.23
2016-05-20T05:45:59.682Z,82.65
2016-05-20T05:46:59.668Z,83.51
2016-05-20T05:47:59.656Z,83.42
2016-05-20T05:48:59.642Z,82.18
2016-05-20T05:49:59.630Z,83.7
2016-05-20T05:50:59.632Z,83.23
2016-05-20T05:51:59.604Z,84.19
2016-05-20T05:52:59.450Z,84.56
2016-05-20T05:53:59.594Z,85.77
2016-05-20T05:54:59.815Z,84.72
2016-05-20T05:55:59.583Z,84.85
2016-05-20T05:56:59.556Z,84.52
2016-05-20T05:57:59.542Z,82.81
2016-05-20T05:58:59.542Z,83.09
2016-05-20T05:59:59.418Z,83.7
2016-05-20T06:00:59.621Z,85.14
2016-05-20T06:01:59.638Z,85.52
2016-05-20T06:02:59.528Z,84.95
2016-05-20T06:03:59.707Z,84.56
2016-05-20T06:04:59.710Z,82.56
2016-05-20T06:05:59.714Z,83.04
2016-05-20T06:06:59.733Z,82.65
2016-05-20T06:07:59.736Z,85.71
2016-05-20T06:08:59.580Z,84.76
2016-05-20T06:10:00.135Z,83.75
2016-05-20T06:10:59.565Z,83.51
2016-05-20T06:11:59.715Z,84.13
2016-05-20T06:12:59.707Z,84.7
2016-05-20T06:13:59.698Z,84.03
2016-05-20T06:14:59.703Z,84.89
2016-05-20T06:15:59.692Z,83.75
2016-05-20T06:16:59.681Z,83.75
2016-05-20T06:17:59.514Z,84.8
2016-05-20T06:18:59.675Z,84.7
2016-05-20T06:19:59.662Z,85.57
2016-05-20T06:20:59.651Z,84.61
2016-05-20T06:21:59.638Z,82.98
2016-05-20T06:22:59.627Z,82.98
2016-05-20T06:23:59.614Z,82.6
2016-05-20T06:24:59.679Z,82.31
2016-05-20T06:25:59.448Z,82.22
2016-05-20T06:26:59.592Z,82.03
2016-05-20T06:27:59.579Z,83.08
2016-05-20T06:28:59.598Z,81.88
2016-05-20T06:29:59.553Z,83.03
2016-05-20T06:30:59.572Z,81.02
2016-05-20T06:31:59.528Z,81.59
2016-05-20T06:32:59.531Z,80.82
2016-05-20T06:33:59.517Z,82.35
2016-05-20T06:34:59.348Z,83.22
2016-05-20T06:35:59.336Z,80.44
2016-05-20T06:36:59.495Z,81.4
2016-05-20T06:37:59.325Z,81.21
2016-05-20T06:38:59.469Z,81.3
2016-05-20T06:39:59.456Z,81.02
2016-05-20T06:40:59.443Z,80.73
2016-05-20T06:41:59.445Z,78.81
2016-05-20T06:42:59.433Z,79.33
2016-05-20T06:43:59.419Z,78.95
2016-05-20T06:44:59.407Z,79.1
2016-05-20T06:45:59.409Z,78.86
2016-05-20T06:46:59.380Z,78.28
2016-05-20T06:47:59.383Z,79.91
2016-05-20T06:48:59.214Z,79.33
2016-05-20T06:49:59.357Z,78.47
2016-05-20T06:50:59.360Z,79.33
2016-05-20T06:51:59.348Z,78.57
2016-05-20T06:52:59.334Z,77.99
2016-05-20T06:53:59.321Z,78.47
2016-05-20T06:54:59.262Z,77.17
2016-05-20T06:55:59.312Z,78.61
2016-05-20T06:56:59.298Z,78.03
2016-05-20T06:57:59.285Z,77.08
2016-05-20T06:58:59.117Z,75.96
2016-05-20T07:00:59.262Z,75.68
2016-05-20T07:01:59.250Z,74.72
2016-05-20T07:02:59.252Z,74.24
2016-05-20T07:03:59.255Z,74.72
2016-05-20T07:04:59.069Z,73.95
2016-05-20T07:05:59.228Z,73.9
2016-05-20T07:06:59.216Z,73.32
2016-05-20T07:07:59.203Z,74.08
2016-05-20T07:08:59.205Z,71.92
2016-05-20T07:09:59.036Z,71.44
2016-05-20T07:10:59.195Z,71.82
2016-05-20T07:11:59.183Z,71.53
2016-05-20T07:12:59.169Z,71.37
2016-05-20T07:13:59.000Z,71.47
2016-05-20T07:14:59.160Z,70.8
2016-05-20T07:15:59.163Z,70.99
2016-05-20T07:16:59.149Z,70.7
2016-05-20T07:17:59.152Z,70.8
2016-05-20T07:18:59.139Z,70.76
2016-05-20T07:19:59.126Z,70.48
2016-05-20T07:20:59.128Z,70.96
2016-05-20T07:21:59.115Z,70.86
2016-05-20T07:22:59.102Z,71.53
2016-05-20T07:23:59.105Z,71.72
2016-05-20T07:24:59.389Z,71.82
2016-05-20T07:25:59.079Z,72.39
2016-05-20T07:26:59.082Z,71.98
2016-05-20T07:27:59.070Z,72.39
2016-05-20T07:28:59.072Z,72.94
2016-05-20T07:29:59.059Z,72.45
2016-05-20T07:30:59.046Z,72.45
2016-05-20T07:31:59.034Z,72.27
2016-05-20T07:32:59.036Z,72.55
2016-05-20T07:33:59.023Z,72.9
2016-05-20T07:34:59.026Z,72.9
2016-05-20T07:35:59.012Z,72.61
2016-05-20T07:36:58.999Z,73.28
2016-05-20T07:37:58.986Z,73.76
2016-05-20T07:38:58.989Z,73.57
2016-05-20T07:39:59.180Z,73.95
2016-05-20T07:40:58.979Z,73.95
2016-05-20T07:41:58.966Z,73.95
2016-05-20T07:42:58.953Z,74.24
2016-05-20T07:43:58.956Z,73.76
2016-05-20T07:44:58.943Z,73.95
2016-05-20T07:45:58.930Z,74.37
2016-05-20T07:46:58.917Z,73.8
2016-05-20T07:47:58.904Z,73.9
2016-05-20T07:48:58.907Z,73.9
2016-05-20T07:49:58.894Z,73.41
2016-05-20T07:50:58.897Z,73.13
2016-05-20T07:51:58.885Z,73.95
2016-05-20T07:52:58.886Z,73.86
2016-05-20T07:53:58.857Z,73.8
2016-05-20T07:54:59.173Z,73.32
2016-05-20T07:55:58.691Z,74.18
2016-05-20T07:56:58.834Z,74.27
2016-05-20T07:57:58.837Z,73.32
2016-05-20T07:58:58.824Z,73.99
2016-05-20T07:59:59.702Z,73.57
2016-05-20T08:00:58.798Z,73.66
2016-05-20T08:01:58.801Z,74.33
2016-05-20T08:02:58.789Z,73.95
2016-05-20T08:03:58.775Z,73.95
2016-05-20T08:04:58.778Z,74.91
2016-05-20T08:05:58.765Z,75.96
2016-05-20T08:06:58.752Z,75.2
2016-05-20T08:07:58.583Z,75.62
2016-05-20T08:08:58.930Z,76.57
2016-05-20T08:09:58.823Z,75.9
2016-05-20T08:10:58.778Z,73.99
2016-05-20T08:11:58.719Z,75.58
2016-05-20T08:12:58.706Z,74.72
2016-05-20T08:13:58.693Z,74.33
2016-05-20T08:14:58.696Z,74.15
2016-05-20T08:15:58.683Z,74.43
2016-05-20T08:16:58.686Z,74.72
2016-05-20T08:17:58.657Z,76.35
2016-05-20T08:18:58.660Z,75.68
2016-05-20T08:20:02.412Z,74.82
2016-05-20T08:21:01.149Z,75.2
2016-05-20T08:21:58.621Z,75.58
2016-05-20T08:23:00.138Z,75.58
2016-05-20T08:23:58.610Z,76.06
2016-05-20T08:24:58.457Z,75.29
2016-05-20T08:25:58.944Z,75.39
2016-05-20T08:26:58.587Z,75.29
2016-05-20T08:27:58.418Z,74.91
2016-05-20T08:28:58.576Z,75.2
2016-05-20T08:29:58.407Z,74.91
2016-05-20T08:30:58.551Z,75.2
2016-05-20T08:31:58.537Z,75.58
2016-05-20T08:32:58.526Z,75.58
2016-05-20T08:33:58.372Z,75.23
2016-05-20T08:35:03.140Z,74.27
2016-05-20T08:35:58.517Z,74.08
2016-05-20T08:36:58.505Z,74.18
2016-05-20T08:37:58.492Z,73.99
2016-05-20T08:38:58.478Z,73.13
2016-05-20T08:39:58.341Z,73.32
2016-05-20T08:40:58.469Z,74.18
2016-05-20T08:41:58.456Z,72.68
2016-05-20T08:42:58.303Z,72.11
2016-05-20T08:43:58.445Z,72.3
2016-05-20T08:44:58.432Z,71.44
2016-05-20T08:45:58.919Z,70.96
2016-05-20T08:46:58.422Z,70.96
2016-05-20T08:47:58.410Z,71.63
2016-05-20T08:48:58.397Z,71.15
2016-05-20T08:49:58.399Z,71.34
2016-05-20T08:50:58.386Z,71.15
2016-05-20T08:51:58.374Z,71.34
2016-05-20T08:52:58.376Z,71.34
2016-05-20T08:53:58.363Z,71.44
2016-05-20T08:54:58.209Z,71.34
2016-05-20T08:55:58.353Z,71.53
2016-05-20T08:56:58.340Z,71.05
2016-05-20T08:57:58.326Z,72.01
2016-05-20T08:58:58.330Z,71.53
2016-05-20T08:59:58.317Z,71.15
2016-05-20T09:00:58.320Z,70.99
2016-05-20T09:01:58.353Z,71.44
2016-05-20T09:02:58.293Z,71.57
2016-05-20T09:03:58.296Z,70.8
2016-05-20T09:04:58.299Z,71.28
2016-05-20T09:05:58.676Z,69.84
2016-05-20T09:06:58.272Z,70.17
2016-05-20T09:07:58.260Z,69.68
2016-05-20T09:08:58.278Z,69.01
2016-05-20T09:09:58.125Z,68.15
2016-05-20T09:10:58.253Z,67.7
2016-05-20T09:11:58.239Z,67.45
2016-05-20T09:12:58.086Z,65.62
2016-05-20T09:13:58.230Z,65.37
2016-05-20T09:14:58.216Z,65.66
2016-05-20T09:15:58.219Z,65.17
2016-05-20T09:16:58.222Z,64.31
2016-05-20T09:17:58.209Z,65.08
2016-05-20T09:18:58.197Z,65.08
2016-05-20T09:19:58.199Z,63.67
2016-05-20T09:20:58.202Z,63.28
2016-05-20T09:21:58.204Z,62.64
2016-05-20T09:22:58.191Z,62.64
2016-05-20T09:23:58.022Z,62.99
2016-05-20T09:24:58.196Z,62.54
2016-05-20T09:25:58.168Z,61.39
2016-05-20T09:26:58.170Z,61.58
2016-05-20T09:27:58.174Z,61.1
2016-05-20T09:28:58.176Z,60.55
2016-05-20T09:29:58.163Z,61.13
2016-05-20T09:30:58.182Z,60.36
2016-05-20T09:31:57.996Z,60
2016-05-20T09:32:58.187Z,60.13
2016-05-20T09:33:58.018Z,60
2016-05-20T09:34:58.176Z,59.07
2016-05-20T09:35:58.164Z,58.78
2016-05-20T09:36:58.150Z,58.42
2016-05-20T09:37:58.169Z,57.85
2016-05-20T09:38:58.000Z,57.46
2016-05-20T09:39:58.158Z,57.87
2016-05-20T09:40:58.161Z,57.94
2016-05-20T09:41:58.148Z,57.94
2016-05-20T09:42:57.995Z,57.46
2016-05-20T09:43:58.154Z,56.04
2016-05-20T09:44:58.141Z,56.84
2016-05-20T09:45:58.159Z,56.72
2016-05-20T09:46:58.146Z,56.72
2016-05-20T09:47:58.149Z,56.24
2016-05-20T09:48:58.152Z,56.46
2016-05-20T09:49:57.998Z,57.2
2016-05-20T09:50:58.157Z,58.07
2016-05-20T09:51:57.988Z,57.2
2016-05-20T09:52:58.163Z,57.01
2016-05-20T09:53:58.149Z,57.29
2016-05-20T09:54:58.652Z,57.37
2016-05-20T09:55:58.138Z,58.49
2016-05-20T09:56:58.142Z,58.42
2016-05-20T09:57:58.144Z,58.42
2016-05-20T09:58:58.006Z,58.88
2016-05-20T09:59:58.149Z,58.97
2016-05-20T10:00:58.152Z,59.91
2016-05-20T10:01:58.140Z,60.49
2016-05-20T10:02:58.143Z,60.1
2016-05-20T10:03:58.129Z,60.1
2016-05-20T10:04:57.992Z,60.2
2016-05-20T10:05:58.135Z,60.1
2016-05-20T10:06:58.138Z,58.97
2016-05-20T10:07:58.125Z,58.97
2016-05-20T10:08:58.128Z,59.52
2016-05-20T10:09:57.973Z,59.43
2016-05-20T10:10:58.133Z,59.14
2016-05-20T10:11:58.120Z,60.2
2016-05-20T10:12:58.122Z,59.23
2016-05-20T10:13:58.109Z,59.65
2016-05-20T10:14:58.128Z,60.13
2016-05-20T10:15:58.114Z,59.75
2016-05-20T10:16:58.133Z,59.17
2016-05-20T10:17:58.105Z,58.23
2016-05-20T10:18:58.107Z,58.81
2016-05-20T10:19:58.094Z,59.55
2016-05-20T10:20:57.956Z,60.23
2016-05-20T10:21:58.099Z,60.61
2016-05-20T10:22:58.102Z,60.32
2016-05-20T10:23:57.933Z,60.23
2016-05-20T10:24:58.952Z,59.17
2016-05-20T10:25:58.094Z,59.84
2016-05-20T10:26:58.082Z,59
2016-05-20T10:27:58.084Z,60.03
2016-05-20T10:28:58.087Z,59.27
2016-05-20T10:29:58.105Z,59.62
2016-05-20T10:30:58.077Z,58.88
2016-05-20T10:31:58.079Z,58.3
2016-05-20T10:32:57.910Z,59
2016-05-20T10:33:58.070Z,58.3
2016-05-20T10:34:58.104Z,58.88
2016-05-20T10:35:58.059Z,59.07
2016-05-20T10:36:58.124Z,59.94
2016-05-20T10:37:58.159Z,60.03
2016-05-20T10:38:58.051Z,59.07
2016-05-20T10:39:58.507Z,58.78
2016-05-20T10:40:58.042Z,59.27
2016-05-20T10:41:58.044Z,60.23
2016-05-20T10:42:58.032Z,60.03
2016-05-20T10:43:58.049Z,60.2
2016-05-20T10:44:58.037Z,60.23
2016-05-20T10:45:58.024Z,60.32
2016-05-20T10:46:58.073Z,59.36
2016-05-20T10:47:58.029Z,60.42
2016-05-20T10:48:58.017Z,59.55
2016-05-20T10:49:58.019Z,59.36
2016-05-20T10:50:57.849Z,59.94
2016-05-20T10:51:57.962Z,59.75
2016-05-20T10:52:58.011Z,60.23
2016-05-20T10:53:57.999Z,60.58
2016-05-20T10:54:57.954Z,60.94
2016-05-20T10:55:58.066Z,62
2016-05-20T10:56:58.007Z,61.22
2016-05-20T10:57:58.010Z,61.04
2016-05-20T10:58:57.997Z,61.61
2016-05-20T10:59:57.982Z,61.16
2016-05-20T11:00:57.970Z,61.16
2016-05-20T11:01:57.988Z,61.25
2016-05-20T11:02:58.023Z,62.19
2016-05-20T11:03:57.979Z,62.35
2016-05-20T11:04:57.981Z,62.57
2016-05-20T11:05:57.952Z,62.29
2016-05-20T11:06:57.955Z,61.68
2016-05-20T11:07:58.020Z,62.09
2016-05-20T11:08:57.945Z,60.94
2016-05-20T11:09:57.792Z,61.25
2016-05-20T11:10:57.951Z,60.58
2016-05-20T11:11:57.938Z,60.32
2016-05-20T11:12:57.940Z,60.32
2016-05-20T11:13:57.927Z,60.23
2016-05-20T11:14:57.914Z,60.35
2016-05-20T11:15:57.917Z,59
2016-05-20T11:16:57.920Z,58.94
2016-05-20T11:17:57.922Z,57.78
2016-05-20T11:18:57.909Z,58.36
2016-05-20T11:19:58.022Z,58.42
2016-05-20T11:20:57.899Z,58.36
2016-05-20T11:21:57.902Z,57.75
2016-05-20T11:22:57.904Z,57.39
2016-05-20T11:23:57.891Z,57.1
2016-05-20T11:24:57.800Z,56.26
2016-05-20T11:25:57.725Z,56.26
2016-05-20T11:26:57.915Z,56.16
2016-05-20T11:27:57.918Z,55.68
2016-05-20T11:28:57.983Z,56.13
2016-05-20T11:29:58.002Z,55.74
2016-05-20T11:30:57.880Z,55.45
2016-05-20T11:31:57.960Z,55.62
2016-05-20T11:32:57.869Z,55.62
2016-05-20T11:33:57.871Z,55.98
2016-05-20T11:34:57.874Z,56.26
2016-05-20T11:35:57.877Z,56.36
2016-05-20T11:36:57.879Z,56.72
2016-05-20T11:37:57.867Z,56.56
2016-05-20T11:38:57.869Z,56.62
2016-05-20T11:39:57.887Z,56.07
2016-05-20T11:40:57.859Z,55.81
2016-05-20T11:41:57.862Z,55.71
2016-05-20T11:42:57.848Z,56.36
2016-05-20T11:43:57.852Z,57.23
2016-05-20T11:44:57.854Z,56.56
2016-05-20T11:45:57.841Z,57.04
2016-05-20T11:46:57.844Z,57.52
2016-05-20T11:47:57.847Z,56.94
2016-05-20T11:48:57.850Z,57.52
2016-05-20T11:49:57.836Z,57.78
2016-05-20T11:50:57.840Z,57.87
2016-05-20T11:51:57.841Z,58.07
2016-05-20T11:52:57.828Z,58.14
2016-05-20T11:53:57.831Z,59.3
2016-05-20T11:54:58.413Z,59.39
2016-05-20T11:55:57.666Z,59.2
2016-05-20T11:56:57.824Z,59.94
2016-05-20T11:57:57.811Z,60.32
2016-05-20T11:58:57.658Z,60.26
2016-05-20T11:59:57.816Z,59.58
2016-05-20T12:00:57.819Z,59.2
2016-05-20T12:01:57.807Z,58.91
2016-05-20T12:02:57.793Z,59.3
2016-05-20T12:03:57.796Z,58.72
2016-05-20T12:04:57.799Z,57.97
2016-05-20T12:05:57.832Z,57.04
2016-05-20T12:06:57.788Z,57.49
2016-05-20T12:07:57.790Z,57.59
2016-05-20T12:08:57.794Z,57.49
2016-05-20T12:09:57.796Z,57.49
2016-05-20T12:10:57.627Z,57.49
2016-05-20T12:11:57.615Z,56.65
2016-05-20T12:12:57.774Z,56.65
2016-05-20T12:13:57.776Z,56.33
2016-05-20T12:14:57.778Z,56.46
2016-05-20T12:15:57.765Z,56.94
2016-05-20T12:16:57.784Z,56.2
2016-05-20T12:17:57.771Z,54.87
2016-05-20T12:18:57.773Z,55.81
2016-05-20T12:19:57.761Z,55.9
2016-05-20T12:20:57.763Z,55.81
2016-05-20T12:21:57.750Z,55.71
2016-05-20T12:22:57.753Z,56.2
2016-05-20T12:23:57.803Z,56.1
2016-05-20T12:24:58.087Z,56.46
2016-05-20T12:25:57.746Z,57.78
2016-05-20T12:26:57.749Z,58.45
2016-05-20T12:27:57.783Z,58.94
2016-05-20T12:28:57.754Z,58.45
2016-05-20T12:29:57.616Z,58.72
2016-05-20T12:30:57.760Z,59
2016-05-20T12:31:57.730Z,58.81
2016-05-20T12:32:57.577Z,59.39
2016-05-20T12:33:57.736Z,59
2016-05-20T12:34:57.739Z,59.48
2016-05-20T12:35:57.741Z,59.84
2016-05-20T12:36:57.713Z,59.65
2016-05-20T12:37:57.715Z,59.65
2016-05-20T12:38:57.719Z,59.39
2016-05-20T12:39:58.237Z,59
2016-05-20T12:40:57.942Z,59.55
2016-05-20T12:41:57.696Z,60.03
2016-05-20T12:42:57.713Z,60.61
2016-05-20T12:43:57.701Z,60.23
2016-05-20T12:44:57.687Z,60.13
2016-05-20T12:45:57.690Z,59.55
2016-05-20T12:46:57.536Z,59.36
2016-05-20T12:47:57.680Z,60.03
2016-05-20T12:48:57.667Z,59.27
2016-05-20T12:49:57.670Z,59.2
2016-05-20T12:50:57.673Z,57.85
2016-05-20T12:51:57.659Z,57.59
2016-05-20T12:52:57.662Z,57.59
2016-05-20T12:53:57.665Z,57.97
2016-05-20T12:54:58.090Z,57.39
2016-05-20T12:55:57.654Z,57.59
2016-05-20T12:56:57.500Z,58.23